sensor_id;sensor_type;location;lat;lon;timestamp;pressure;altitude;pressure_sealevel;temperature;humidity
65359;BME280;52491;45.900;6.346;2023-05-07T00:01:01;93699.47;;;25.78;32.76
65359;BME280;52491;45.900;6.346;2023-05-07T00:03:27;93699.47;;;25.78;32.63
65359;BME280;52491;45.900;6.346;2023-05-07T00:05:54;93698.69;;;25.77;32.75
65359;BME280;52491;45.900;6.346;2023-05-07T00:08:19;93701.34;;;25.77;33.04
65359;BME280;52491;45.900;6.346;2023-05-07T00:10:45;93697.59;;;25.78;33.00
65359;BME280;52491;45.900;6.346;2023-05-07T00:13:11;93708.28;;;25.78;33.06
65359;BME280;52491;45.900;6.346;2023-05-07T00:15:37;93714.41;;;25.79;32.91
65359;BME280;52491;45.900;6.346;2023-05-07T00:18:03;93714.41;;;25.79;32.64
65359;BME280;52491;45.900;6.346;2023-05-07T00:20:28;93716.28;;;25.78;33.22
65359;BME280;52491;45.900;6.346;2023-05-07T00:22:54;93713.91;;;25.77;33.16
65359;BME280;52491;45.900;6.346;2023-05-07T00:25:19;93709.38;;;25.77;32.64
65359;BME280;52491;45.900;6.346;2023-05-07T00:27:45;93702.41;;;25.76;33.18
65359;BME280;52491;45.900;6.346;2023-05-07T00:30:11;93692.53;;;25.77;32.79
65359;BME280;52491;45.900;6.346;2023-05-07T00:32:37;93702.41;;;25.76;33.03
65359;BME280;52491;45.900;6.346;2023-05-07T00:35:03;93708.56;;;25.77;33.01
65359;BME280;52491;45.900;6.346;2023-05-07T00:37:29;93720.31;;;25.76;32.49
65359;BME280;52491;45.900;6.346;2023-05-07T00:39:55;93724.84;;;25.75;32.54
65359;BME280;52491;45.900;6.346;2023-05-07T00:42:20;93729.09;;;25.76;32.71
65359;BME280;52491;45.900;6.346;2023-05-07T00:44:46;93719.50;;;25.75;32.82
65359;BME280;52491;45.900;6.346;2023-05-07T00:47:12;93711.50;;;25.75;32.42
65359;BME280;52491;45.900;6.346;2023-05-07T00:49:42;93721.09;;;25.76;32.52
65359;BME280;52491;45.900;6.346;2023-05-07T00:52:13;93710.41;;;25.76;32.76
65359;BME280;52491;45.900;6.346;2023-05-07T00:54:41;93711.50;;;25.75;32.68
65359;BME280;52491;45.900;6.346;2023-05-07T00:57:07;93711.50;;;25.75;32.47
65359;BME280;52491;45.900;6.346;2023-05-07T00:59:34;93708.81;;;25.75;32.97
65359;BME280;52491;45.900;6.346;2023-05-07T01:02:00;93702.69;;;25.75;32.27
65359;BME280;52491;45.900;6.346;2023-05-07T01:04:26;93710.97;;;25.73;32.50
65359;BME280;52491;45.900;6.346;2023-05-07T01:06:53;93703.75;;;25.74;32.77
65359;BME280;52491;45.900;6.346;2023-05-07T01:09:21;93712.84;;;25.73;32.70
65359;BME280;52491;45.900;6.346;2023-05-07T01:11:47;93712.06;;;25.72;32.64
65359;BME280;52491;45.900;6.346;2023-05-07T01:14:14;93706.72;;;25.72;32.77
65359;BME280;52491;45.900;6.346;2023-05-07T01:16:40;93714.72;;;25.72;32.43
65359;BME280;52491;45.900;6.346;2023-05-07T01:19:08;93713.94;;;25.72;32.58
65359;BME280;52491;45.900;6.346;2023-05-07T01:21:36;93711.25;;;25.72;32.52
65359;BME280;52491;45.900;6.346;2023-05-07T01:24:02;93705.91;;;25.72;32.43
65359;BME280;52491;45.900;6.346;2023-05-07T01:26:29;93716.59;;;25.72;32.44
65359;BME280;52491;45.900;6.346;2023-05-07T01:28:54;93718.19;;;25.73;32.77
65359;BME280;52491;45.900;6.346;2023-05-07T01:31:20;93711.25;;;25.72;32.48
65359;BME280;52491;45.900;6.346;2023-05-07T01:33:48;93702.97;;;25.73;32.57
65359;BME280;52491;45.900;6.346;2023-05-07T01:36:14;93709.38;;;25.72;32.44
65359;BME280;52491;45.900;6.346;2023-05-07T01:38:41;93704.31;;;25.71;32.71
65359;BME280;52491;45.900;6.346;2023-05-07T01:41:07;93720.06;;;25.72;32.61
65359;BME280;52491;45.900;6.346;2023-05-07T01:43:33;93709.38;;;25.72;32.60
65359;BME280;52491;45.900;6.346;2023-05-07T01:45:59;93714.19;;;25.70;32.64
65359;BME280;52491;45.900;6.346;2023-05-07T01:48:26;93716.84;;;25.70;32.37
65359;BME280;52491;45.900;6.346;2023-05-07T01:50:52;93713.41;;;25.70;32.66
65359;BME280;52491;45.900;6.346;2023-05-07T01:53:18;93715.28;;;25.69;32.42
65359;BME280;52491;45.900;6.346;2023-05-07T01:55:44;93712.59;;;25.69;32.38
65359;BME280;52491;45.900;6.346;2023-05-07T01:58:10;93701.13;;;25.68;32.33
65359;BME280;52491;45.900;6.346;2023-05-07T02:00:36;93701.91;;;25.69;32.36
65359;BME280;52491;45.900;6.346;2023-05-07T02:03:01;93699.50;;;25.67;32.56
65359;BME280;52491;45.900;6.346;2023-05-07T02:05:27;93707.53;;;25.67;32.27
65359;BME280;52491;45.900;6.346;2023-05-07T02:07:52;93715.53;;;25.67;32.56
65359;BME280;52491;45.900;6.346;2023-05-07T02:10:18;93725.94;;;25.69;32.40
65359;BME280;52491;45.900;6.346;2023-05-07T02:12:44;93717.94;;;25.69;32.72
65359;BME280;52491;45.900;6.346;2023-05-07T02:15:10;93713.41;;;25.70;32.43
65359;BME280;52491;45.900;6.346;2023-05-07T02:17:39;93732.09;;;25.70;32.51
65359;BME280;52491;45.900;6.346;2023-05-07T02:20:23;93725.16;;;25.68;32.28
65359;BME280;52491;45.900;6.346;2023-05-07T02:22:49;93725.94;;;25.69;32.32
65359;BME280;52491;45.900;6.346;2023-05-07T02:25:15;93723.28;;;25.69;32.10
65359;BME280;52491;45.900;6.346;2023-05-07T02:27:40;93736.63;;;25.69;32.72
65359;BME280;52491;45.900;6.346;2023-05-07T02:30:06;93746.53;;;25.68;32.67
65359;BME280;52491;45.900;6.346;2023-05-07T02:32:32;93754.25;;;25.70;32.14
65359;BME280;52491;45.900;6.346;2023-05-07T02:34:57;93764.13;;;25.70;32.49
65359;BME280;52491;45.900;6.346;2023-05-07T02:37:23;93766.25;;;25.67;32.45
65359;BME280;52491;45.900;6.346;2023-05-07T02:39:48;93772.69;;;25.66;32.48
65359;BME280;52491;45.900;6.346;2023-05-07T02:42:17;93782.28;;;25.67;32.50
65359;BME280;52491;45.900;6.346;2023-05-07T02:44:43;93794.03;;;25.66;32.54
65359;BME280;52491;45.900;6.346;2023-05-07T02:47:08;93794.03;;;25.66;32.13
65359;BME280;52491;45.900;6.346;2023-05-07T02:49:34;93803.13;;;25.65;32.54
65359;BME280;52491;45.900;6.346;2023-05-07T02:52:00;93804.19;;;25.64;32.33
65359;BME280;52491;45.900;6.346;2023-05-07T02:54:26;93806.06;;;25.64;32.57
65359;BME280;52491;45.900;6.346;2023-05-07T02:56:51;93806.06;;;25.64;32.57
65359;BME280;52491;45.900;6.346;2023-05-07T02:59:17;93810.63;;;25.63;32.14
65359;BME280;52491;45.900;6.346;2023-05-07T03:01:42;93821.28;;;25.63;32.22
65359;BME280;52491;45.900;6.346;2023-05-07T03:04:10;93828.22;;;25.64;32.33
65359;BME280;52491;45.900;6.346;2023-05-07T03:06:36;93820.50;;;25.63;32.30
65359;BME280;52491;45.900;6.346;2023-05-07T03:09:02;93810.63;;;25.63;32.64
65359;BME280;52491;45.900;6.346;2023-05-07T03:11:27;93817.53;;;25.64;32.47
65359;BME280;52491;45.900;6.346;2023-05-07T03:13:53;93809.53;;;25.64;32.41
65359;BME280;52491;45.900;6.346;2023-05-07T03:16:18;93796.47;;;25.63;32.66
65359;BME280;52491;45.900;6.346;2023-05-07T03:18:44;93784.97;;;25.62;31.95
65359;BME280;52491;45.900;6.346;2023-05-07T03:21:09;93792.72;;;25.64;32.38
65359;BME280;52491;45.900;6.346;2023-05-07T03:23:35;93795.38;;;25.64;32.52
65359;BME280;52491;45.900;6.346;2023-05-07T03:26:01;93795.66;;;25.62;32.89
65359;BME280;52491;45.900;6.346;2023-05-07T03:28:26;93800.97;;;25.62;32.62
65359;BME280;52491;45.900;6.346;2023-05-07T03:30:52;93805.53;;;25.62;32.47
65359;BME280;52491;45.900;6.346;2023-05-07T03:33:17;93809.81;;;25.63;32.78
65359;BME280;52491;45.900;6.346;2023-05-07T03:35:43;93819.69;;;25.62;32.51
65359;BME280;52491;45.900;6.346;2023-05-07T03:38:08;93814.63;;;25.61;32.44
65359;BME280;52491;45.900;6.346;2023-05-07T03:40:34;93810.06;;;25.61;32.47
65359;BME280;52491;45.900;6.346;2023-05-07T03:43:00;93813.81;;;25.60;32.72
65359;BME280;52491;45.900;6.346;2023-05-07T03:45:26;93816.50;;;25.60;32.64
65359;BME280;52491;45.900;6.346;2023-05-07T03:47:51;93811.94;;;25.61;32.50
65359;BME280;52491;45.900;6.346;2023-05-07T03:50:17;93810.06;;;25.61;32.57
65359;BME280;52491;45.900;6.346;2023-05-07T03:52:42;93808.50;;;25.60;32.74
65359;BME280;52491;45.900;6.346;2023-05-07T03:55:09;93798.59;;;25.61;32.48
65359;BME280;52491;45.900;6.346;2023-05-07T03:57:34;93800.47;;;25.60;32.80
65359;BME280;52491;45.900;6.346;2023-05-07T04:00:00;93799.41;;;25.61;32.70
65359;BME280;52491;45.900;6.346;2023-05-07T04:02:25;93800.47;;;25.60;32.37
65359;BME280;52491;45.900;6.346;2023-05-07T04:04:51;93802.06;;;25.61;32.40
65359;BME280;52491;45.900;6.346;2023-05-07T04:07:17;93801.53;;;25.59;32.45
65359;BME280;52491;45.900;6.346;2023-05-07T04:09:42;93794.31;;;25.60;32.73
65359;BME280;52491;45.900;6.346;2023-05-07T04:12:08;93795.41;;;25.59;32.64
65359;BME280;52491;45.900;6.346;2023-05-07T04:14:34;93791.94;;;25.58;32.65
65359;BME280;52491;45.900;6.346;2023-05-07T04:16:59;93798.06;;;25.59;32.63
65359;BME280;52491;45.900;6.346;2023-05-07T04:19:25;93791.94;;;25.58;32.91
65359;BME280;52491;45.900;6.346;2023-05-07T04:21:50;93797.28;;;25.58;32.53
65359;BME280;52491;45.900;6.346;2023-05-07T04:24:16;93800.75;;;25.59;32.57
65359;BME280;52491;45.900;6.346;2023-05-07T04:26:42;93801.81;;;25.58;32.64
65359;BME280;52491;45.900;6.346;2023-05-07T04:29:07;93797.53;;;25.57;32.42
65359;BME280;52491;45.900;6.346;2023-05-07T04:31:33;93799.94;;;25.58;32.76
65359;BME280;52491;45.900;6.346;2023-05-07T04:33:58;93795.41;;;25.59;32.56
65359;BME280;52491;45.900;6.346;2023-05-07T04:36:24;93794.88;;;25.57;32.54
65359;BME280;52491;45.900;6.346;2023-05-07T04:38:53;93797.28;;;25.58;32.93
65359;BME280;52491;45.900;6.346;2023-05-07T04:41:19;93789.53;;;25.57;32.62
65359;BME280;52491;45.900;6.346;2023-05-07T04:43:44;93780.72;;;25.56;32.47
65359;BME280;52491;45.900;6.346;2023-05-07T04:46:10;93783.38;;;25.56;32.87
65359;BME280;52491;45.900;6.346;2023-05-07T04:48:36;93785.28;;;25.56;32.93
65359;BME280;52491;45.900;6.346;2023-05-07T04:51:01;93785.28;;;25.56;32.55
65359;BME280;52491;45.900;6.346;2023-05-07T04:53:27;93787.16;;;25.55;32.48
65359;BME280;52491;45.900;6.346;2023-05-07T04:55:56;93787.16;;;25.55;32.65
65359;BME280;52491;45.900;6.346;2023-05-07T04:58:22;93785.53;;;25.54;32.44
65359;BME280;52491;45.900;6.346;2023-05-07T05:00:48;93789.00;;;25.55;32.46
65359;BME280;52491;45.900;6.346;2023-05-07T05:03:14;93789.28;;;25.53;32.53
65359;BME280;52491;45.900;6.346;2023-05-07T05:05:40;93791.16;;;25.53;32.75
65359;BME280;52491;45.900;6.346;2023-05-07T05:08:05;93786.59;;;25.53;32.53
65359;BME280;52491;45.900;6.346;2023-05-07T05:10:31;93788.47;;;25.53;32.98
65359;BME280;52491;45.900;6.346;2023-05-07T05:12:57;93793.53;;;25.54;32.70
65359;BME280;52491;45.900;6.346;2023-05-07T05:15:22;93786.59;;;25.53;32.48
65359;BME280;52491;45.900;6.346;2023-05-07T05:17:48;93789.28;;;25.53;32.55
65359;BME280;52491;45.900;6.346;2023-05-07T05:20:14;93791.94;;;25.53;32.78
65359;BME280;52491;45.900;6.346;2023-05-07T05:22:39;93786.59;;;25.53;32.93
65359;BME280;52491;45.900;6.346;2023-05-07T05:25:05;93791.94;;;25.53;32.44
65359;BME280;52491;45.900;6.346;2023-05-07T05:27:31;93785.81;;;25.53;32.87
65359;BME280;52491;45.900;6.346;2023-05-07T05:29:56;93783.16;;;25.53;32.83
65359;BME280;52491;45.900;6.346;2023-05-07T05:32:22;93782.34;;;25.52;32.99
65359;BME280;52491;45.900;6.346;2023-05-07T05:34:47;93788.75;;;25.51;32.86
65359;BME280;52491;45.900;6.346;2023-05-07T05:37:13;93780.72;;;25.51;32.92
65359;BME280;52491;45.900;6.346;2023-05-07T05:39:39;93785.81;;;25.53;33.00
65359;BME280;52491;45.900;6.346;2023-05-07T05:42:04;93786.06;;;25.51;32.78
65359;BME280;52491;45.900;6.346;2023-05-07T05:44:30;93783.16;;;25.53;33.04
65359;BME280;52491;45.900;6.346;2023-05-07T05:46:55;93781.56;;;25.52;32.50
65359;BME280;52491;45.900;6.346;2023-05-07T05:49:23;93785.03;;;25.52;32.75
65359;BME280;52491;45.900;6.346;2023-05-07T05:51:48;93793.53;;;25.54;33.10
65359;BME280;52491;45.900;6.346;2023-05-07T05:54:14;93783.94;;;25.53;32.51
65359;BME280;52491;45.900;6.346;2023-05-07T05:56:41;93798.06;;;25.54;32.74
65359;BME280;52491;45.900;6.346;2023-05-07T05:59:06;93786.59;;;25.53;32.56
65359;BME280;52491;45.900;6.346;2023-05-07T06:01:32;93783.94;;;25.53;33.00
65359;BME280;52491;45.900;6.346;2023-05-07T06:03:58;93780.19;;;25.54;33.13
65359;BME280;52491;45.900;6.346;2023-05-07T06:06:23;93785.53;;;25.54;32.58
65359;BME280;52491;45.900;6.346;2023-05-07T06:08:49;93786.34;;;25.55;33.05
65359;BME280;52491;45.900;6.346;2023-05-07T06:11:14;93781.81;;;25.55;32.89
65359;BME280;52491;45.900;6.346;2023-05-07T06:13:40;93783.69;;;25.55;32.63
65359;BME280;52491;45.900;6.346;2023-05-07T06:16:06;93783.69;;;25.55;32.89
65359;BME280;52491;45.900;6.346;2023-05-07T06:18:32;93789.00;;;25.55;33.03
65359;BME280;52491;45.900;6.346;2023-05-07T06:20:57;93787.16;;;25.55;32.70
65359;BME280;52491;45.900;6.346;2023-05-07T06:23:23;93785.53;;;25.54;32.71
65359;BME280;52491;45.900;6.346;2023-05-07T06:25:49;93786.59;;;25.53;32.75
65359;BME280;52491;45.900;6.346;2023-05-07T06:28:17;93788.47;;;25.53;33.06
65359;BME280;52491;45.900;6.346;2023-05-07T06:30:43;93789.28;;;25.53;33.03
65359;BME280;52491;45.900;6.346;2023-05-07T06:33:09;93791.16;;;25.53;33.38
65359;BME280;52491;45.900;6.346;2023-05-07T06:35:34;93791.16;;;25.53;32.99
65359;BME280;52491;45.900;6.346;2023-05-07T06:38:00;93794.63;;;25.53;33.34
65359;BME280;52491;45.900;6.346;2023-05-07T06:40:26;93791.94;;;25.53;33.22
65359;BME280;52491;45.900;6.346;2023-05-07T06:42:51;93793.81;;;25.53;32.92
65359;BME280;52491;45.900;6.346;2023-05-07T06:45:17;93799.94;;;25.53;33.14
65359;BME280;52491;45.900;6.346;2023-05-07T06:47:43;93795.69;;;25.52;33.09
65359;BME280;52491;45.900;6.346;2023-05-07T06:50:08;93793.81;;;25.53;33.17
65359;BME280;52491;45.900;6.346;2023-05-07T06:52:35;93784.72;;;25.54;33.19
65359;BME280;52491;45.900;6.346;2023-05-07T06:55:01;93782.84;;;25.54;32.97
65359;BME280;52491;45.900;6.346;2023-05-07T06:57:26;93782.06;;;25.54;32.81
65359;BME280;52491;45.900;6.346;2023-05-07T06:59:52;93780.19;;;25.54;33.52
65359;BME280;52491;45.900;6.346;2023-05-07T07:02:17;93775.94;;;25.53;33.48
65359;BME280;52491;45.900;6.346;2023-05-07T07:04:43;93775.94;;;25.53;33.76
65359;BME280;52491;45.900;6.346;2023-05-07T07:07:10;93781.00;;;25.55;33.43
65359;BME280;52491;45.900;6.346;2023-05-07T07:09:35;93780.19;;;25.54;33.66
65359;BME280;52491;45.900;6.346;2023-05-07T07:12:01;93777.50;;;25.54;33.71
65359;BME280;52491;45.900;6.346;2023-05-07T07:14:27;93776.72;;;25.54;34.16
65359;BME280;52491;45.900;6.346;2023-05-07T07:16:52;93774.84;;;25.54;34.15
65359;BME280;52491;45.900;6.346;2023-05-07T07:19:18;93785.53;;;25.54;34.36
65359;BME280;52491;45.900;6.346;2023-05-07T07:21:45;93780.19;;;25.54;34.03
65359;BME280;52491;45.900;6.346;2023-05-07T07:24:12;93778.34;;;25.55;33.99
65359;BME280;52491;45.900;6.346;2023-05-07T07:26:38;93776.47;;;25.55;34.44
65359;BME280;52491;45.900;6.346;2023-05-07T07:29:05;93773.78;;;25.55;34.07
65359;BME280;52491;45.900;6.346;2023-05-07T07:31:32;93773.78;;;25.55;34.53
65359;BME280;52491;45.900;6.346;2023-05-07T07:33:57;93771.91;;;25.56;34.79
65359;BME280;52491;45.900;6.346;2023-05-07T07:36:23;93774.34;;;25.52;34.88
65359;BME280;52491;45.900;6.346;2023-05-07T07:38:48;93776.47;;;25.50;35.34
65359;BME280;52491;45.900;6.346;2023-05-07T07:41:14;93780.22;;;25.49;35.25
65359;BME280;52491;45.900;6.346;2023-05-07T07:43:39;93773.81;;;25.50;35.46
65359;BME280;52491;45.900;6.346;2023-05-07T07:46:05;93776.22;;;25.52;35.33
65359;BME280;52491;45.900;6.346;2023-05-07T07:48:30;93775.41;;;25.51;35.27
65359;BME280;52491;45.900;6.346;2023-05-07T07:50:56;93773.25;;;25.53;35.48
65359;BME280;52491;45.900;6.346;2023-05-07T07:53:21;93778.34;;;25.55;35.15
65359;BME280;52491;45.900;6.346;2023-05-07T07:55:47;93780.19;;;25.54;35.70
65359;BME280;52491;45.900;6.346;2023-05-07T07:58:13;93782.59;;;25.56;35.52
65359;BME280;52491;45.900;6.346;2023-05-07T08:00:38;93774.84;;;25.54;35.46
65359;BME280;52491;45.900;6.346;2023-05-07T08:03:04;93775.66;;;25.55;35.46
65359;BME280;52491;45.900;6.346;2023-05-07T08:05:30;93773.50;;;25.57;35.96
65359;BME280;52491;45.900;6.346;2023-05-07T08:07:56;93770.56;;;25.58;35.59
65359;BME280;52491;45.900;6.346;2023-05-07T08:10:21;93766.03;;;25.64;35.66
65359;BME280;52491;45.900;6.346;2023-05-07T08:12:48;93763.09;;;25.60;35.52
65359;BME280;52491;45.900;6.346;2023-05-07T08:15:15;93768.44;;;25.60;35.64
65359;BME280;52491;45.900;6.346;2023-05-07T08:17:41;93768.44;;;25.60;35.57
65359;BME280;52491;45.900;6.346;2023-05-07T08:20:07;93767.38;;;25.61;35.29
65359;BME280;52491;45.900;6.346;2023-05-07T08:22:36;93762.00;;;25.66;35.45
65359;BME280;52491;45.900;6.346;2023-05-07T08:25:02;93753.22;;;25.61;35.11
65359;BME280;52491;45.900;6.346;2023-05-07T08:27:28;93755.59;;;25.62;35.31
65359;BME280;52491;45.900;6.346;2023-05-07T08:29:54;93759.09;;;25.63;35.63
65359;BME280;52491;45.900;6.346;2023-05-07T08:32:20;93751.31;;;25.66;35.17
65359;BME280;52491;45.900;6.346;2023-05-07T08:34:46;93756.13;;;25.64;35.28
65359;BME280;52491;45.900;6.346;2023-05-07T08:37:11;93758.00;;;25.64;35.60
65359;BME280;52491;45.900;6.346;2023-05-07T08:39:37;93755.09;;;25.65;35.20
65359;BME280;52491;45.900;6.346;2023-05-07T08:42:03;93754.00;;;25.66;35.48
65359;BME280;52491;45.900;6.346;2023-05-07T08:44:33;93762.53;;;25.68;35.36
65359;BME280;52491;45.900;6.346;2023-05-07T08:47:01;93765.22;;;25.68;34.93
65359;BME280;52491;45.900;6.346;2023-05-07T08:49:28;93763.59;;;25.67;35.23
65359;BME280;52491;45.900;6.346;2023-05-07T08:51:54;93773.47;;;25.67;34.71
65359;BME280;52491;45.900;6.346;2023-05-07T08:54:21;93768.94;;;25.67;34.65
65359;BME280;52491;45.900;6.346;2023-05-07T08:56:48;93767.34;;;25.66;35.12
65359;BME280;52491;45.900;6.346;2023-05-07T08:59:15;93767.34;;;25.66;34.83
65359;BME280;52491;45.900;6.346;2023-05-07T09:01:40;93758.81;;;25.64;34.66
65359;BME280;52491;45.900;6.346;2023-05-07T09:04:06;93765.75;;;25.65;34.49
65359;BME280;52491;45.900;6.346;2023-05-07T09:06:34;93758.81;;;25.64;34.89
65359;BME280;52491;45.900;6.346;2023-05-07T09:09:00;93759.88;;;25.63;34.77
65359;BME280;52491;45.900;6.346;2023-05-07T09:11:26;93769.47;;;25.64;34.27
65359;BME280;52491;45.900;6.346;2023-05-07T09:13:56;93766.81;;;25.64;34.02
65359;BME280;52491;45.900;6.346;2023-05-07T09:16:25;93768.69;;;25.64;34.61
65359;BME280;52491;45.900;6.346;2023-05-07T09:18:52;93766.03;;;25.64;34.82
65359;BME280;52491;45.900;6.346;2023-05-07T09:21:19;93764.94;;;25.65;34.62
65359;BME280;52491;45.900;6.346;2023-05-07T09:23:45;93781.78;;;25.65;34.73
65359;BME280;52491;45.900;6.346;2023-05-07T09:26:14;93769.47;;;25.64;34.55
65359;BME280;52491;45.900;6.346;2023-05-07T09:28:40;93771.91;;;25.66;34.16
65359;BME280;52491;45.900;6.346;2023-05-07T09:31:11;93787.91;;;25.66;34.50
65359;BME280;52491;45.900;6.346;2023-05-07T09:33:37;93781.22;;;25.68;34.11
65359;BME280;52491;45.900;6.346;2023-05-07T09:36:07;93770.56;;;25.68;34.19
65359;BME280;52491;45.900;6.346;2023-05-07T09:38:33;93773.22;;;25.68;34.31
65359;BME280;52491;45.900;6.346;2023-05-07T09:41:09;93775.59;;;25.70;34.39
65359;BME280;52491;45.900;6.346;2023-05-07T09:43:37;93773.47;;;25.67;34.77
65359;BME280;52491;45.900;6.346;2023-05-07T09:46:09;93781.22;;;25.68;34.43
65359;BME280;52491;45.900;6.346;2023-05-07T09:48:38;93780.94;;;25.70;34.66
65359;BME280;52491;45.900;6.346;2023-05-07T09:51:28;93779.59;;;25.73;34.50
65359;BME280;52491;45.900;6.346;2023-05-07T09:53:56;93776.94;;;25.73;34.14
65359;BME280;52491;45.900;6.346;2023-05-07T09:56:22;93780.94;;;25.75;34.64
65359;BME280;52491;45.900;6.346;2023-05-07T09:58:49;93774.78;;;25.80;34.06
65359;BME280;52491;45.900;6.346;2023-05-07T10:01:17;93775.34;;;25.72;34.15
65359;BME280;52491;45.900;6.346;2023-05-07T10:03:45;93772.09;;;25.80;33.91
65359;BME280;52491;45.900;6.346;2023-05-07T10:06:12;93774.25;;;25.78;34.49
65359;BME280;52491;45.900;6.346;2023-05-07T10:08:38;93772.94;;;25.70;34.34
65359;BME280;52491;45.900;6.346;2023-05-07T10:11:05;93774.28;;;25.67;34.58
65359;BME280;52491;45.900;6.346;2023-05-07T10:13:32;93779.34;;;25.69;34.41
65359;BME280;52491;45.900;6.346;2023-05-07T10:16:01;93768.94;;;25.67;34.61
65359;BME280;52491;45.900;6.346;2023-05-07T10:21:07;93779.34;;;25.69;34.49
65359;BME280;52491;45.900;6.346;2023-05-07T10:23:33;93781.22;;;25.68;34.31
65359;BME280;52491;45.900;6.346;2023-05-07T10:26:02;93792.41;;;25.71;34.59
65359;BME280;52491;45.900;6.346;2023-05-07T10:28:31;93789.75;;;25.71;34.50
65359;BME280;52491;45.900;6.346;2023-05-07T10:31:23;93791.88;;;25.74;34.75
65359;BME280;52491;45.900;6.346;2023-05-07T10:33:53;93795.91;;;25.71;35.09
65359;BME280;52491;45.900;6.346;2023-05-07T10:36:20;93791.38;;;25.72;34.21
65359;BME280;52491;45.900;6.346;2023-05-07T10:38:47;93797.50;;;25.72;34.35
65359;BME280;52491;45.900;6.346;2023-05-07T10:41:12;93791.38;;;25.72;34.40
65359;BME280;52491;45.900;6.346;2023-05-07T10:43:42;93800.97;;;25.73;34.69
65359;BME280;52491;45.900;6.346;2023-05-07T10:46:19;93792.94;;;25.73;34.43
65359;BME280;52491;45.900;6.346;2023-05-07T10:51:30;93796.69;;;25.72;34.81
65359;BME280;52491;45.900;6.346;2023-05-07T10:56:35;93795.91;;;25.71;35.14
65359;BME280;52491;45.900;6.346;2023-05-07T11:01:57;93790.56;;;25.71;35.50
65359;BME280;52491;45.900;6.346;2023-05-07T11:04:24;93789.47;;;25.72;35.36
65359;BME280;52491;45.900;6.346;2023-05-07T11:15:05;93798.81;;;25.75;35.21
65359;BME280;52491;45.900;6.346;2023-05-07T11:17:32;93798.53;;;25.76;35.22
65359;BME280;52491;45.900;6.346;2023-05-07T11:20:01;93803.09;;;25.76;35.01
65359;BME280;52491;45.900;6.346;2023-05-07T11:24:56;93812.97;;;25.75;35.30
65359;BME280;52491;45.900;6.346;2023-05-07T11:27:26;93825.25;;;25.76;35.64
65359;BME280;52491;45.900;6.346;2023-05-07T11:29:51;93816.44;;;25.76;35.26
65359;BME280;52491;45.900;6.346;2023-05-07T11:32:37;93810.53;;;25.79;35.66
65359;BME280;52491;45.900;6.346;2023-05-07T11:35:04;93812.72;;;25.77;35.83
65359;BME280;52491;45.900;6.346;2023-05-07T11:37:29;93813.50;;;25.77;35.58
65359;BME280;52491;45.900;6.346;2023-05-07T11:40:08;93807.88;;;25.79;35.80
65359;BME280;52491;45.900;6.346;2023-05-07T11:42:40;93831.66;;;25.80;35.63
65359;BME280;52491;45.900;6.346;2023-05-07T11:45:08;93824.19;;;25.77;35.79
65359;BME280;52491;45.900;6.346;2023-05-07T11:47:34;93831.41;;;25.77;35.55
65359;BME280;52491;45.900;6.346;2023-05-07T11:50:04;93837.25;;;25.79;35.34
65359;BME280;52491;45.900;6.346;2023-05-07T11:52:31;93832.19;;;25.77;34.89
65359;BME280;52491;45.900;6.346;2023-05-07T11:54:58;93833.78;;;25.78;35.25
65359;BME280;52491;45.900;6.346;2023-05-07T11:57:26;93855.16;;;25.78;35.33
65359;BME280;52491;45.900;6.346;2023-05-07T11:59:55;93845.25;;;25.79;35.22
65359;BME280;52491;45.900;6.346;2023-05-07T12:02:22;93852.47;;;25.78;35.06
65359;BME280;52491;45.900;6.346;2023-05-07T12:04:47;93871.16;;;25.78;35.63
65359;BME280;52491;45.900;6.346;2023-05-07T12:07:14;93869.28;;;25.79;35.83
65359;BME280;52491;45.900;6.346;2023-05-07T12:09:41;93871.97;;;25.79;36.01
65359;BME280;52491;45.900;6.346;2023-05-07T12:12:07;93878.09;;;25.79;36.19
65359;BME280;52491;45.900;6.346;2023-05-07T12:14:32;93875.44;;;25.79;36.49
65359;BME280;52491;45.900;6.346;2023-05-07T12:17:01;93891.47;;;25.79;36.36
65359;BME280;52491;45.900;6.346;2023-05-07T12:19:29;93895.22;;;25.78;36.11
65359;BME280;52491;45.900;6.346;2023-05-07T12:21:56;93891.75;;;25.78;36.14
65359;BME280;52491;45.900;6.346;2023-05-07T12:24:22;93896.00;;;25.79;36.05
65359;BME280;52491;45.900;6.346;2023-05-07T12:26:48;93902.13;;;25.79;36.07
65359;BME280;52491;45.900;6.346;2023-05-07T12:29:13;93916.84;;;25.77;36.09
65359;BME280;52491;45.900;6.346;2023-05-07T12:31:43;93910.44;;;25.78;36.01
65359;BME280;52491;45.900;6.346;2023-05-07T12:34:16;93914.69;;;25.79;35.95
65359;BME280;52491;45.900;6.346;2023-05-07T12:36:42;93911.53;;;25.77;36.50
65359;BME280;52491;45.900;6.346;2023-05-07T12:39:08;93910.44;;;25.78;36.38
65359;BME280;52491;45.900;6.346;2023-05-07T12:41:55;93913.91;;;25.78;36.09
65359;BME280;52491;45.900;6.346;2023-05-07T12:44:23;93930.22;;;25.77;36.40
65359;BME280;52491;45.900;6.346;2023-05-07T12:46:49;93921.13;;;25.78;36.57
65359;BME280;52491;45.900;6.346;2023-05-07T12:49:15;93924.88;;;25.77;36.57
65359;BME280;52491;45.900;6.346;2023-05-07T12:51:41;93916.03;;;25.76;36.57
65359;BME280;52491;45.900;6.346;2023-05-07T12:54:06;93921.38;;;25.76;36.51
65359;BME280;52491;45.900;6.346;2023-05-07T12:56:35;93921.13;;;25.78;36.69
65359;BME280;52491;45.900;6.346;2023-05-07T12:59:02;93916.56;;;25.78;36.59
65359;BME280;52491;45.900;6.346;2023-05-07T13:01:31;93917.66;;;25.77;36.53
65359;BME280;52491;45.900;6.346;2023-05-07T13:04:00;93916.56;;;25.78;36.62
65359;BME280;52491;45.900;6.346;2023-05-07T13:06:26;93918.69;;;25.76;37.00
65359;BME280;52491;45.900;6.346;2023-05-07T13:08:52;93915.78;;;25.78;36.45
65359;BME280;52491;45.900;6.346;2023-05-07T13:11:17;93916.56;;;25.78;36.68
65359;BME280;52491;45.900;6.346;2023-05-07T13:13:43;93917.38;;;25.79;36.66
65359;BME280;52491;45.900;6.346;2023-05-07T13:16:10;93916.31;;;25.80;36.27
65359;BME280;52491;45.900;6.346;2023-05-07T13:18:38;93912.81;;;25.79;36.89